Piru, CA (93040)

12:55 PM PDT on September 01, 2014 (GMT -0700)
KCAFILLM3 | Change Station
CLOSE
Current Station
Personal Weather Station
Location: Fillmore, CA
Elevation: 538 ft
Nearby Weather Stations

Elev 538 ft 34.38 °N, 118.85 °W | Updated 17 seconds ago

Clear
Clear
88.1 °F
Feels Like 92 °F
N
11.0
Wind Variable Wind from West
Gusts 15.0 mph

Today
High -- | Low -- °F
--% Chance of Precip.
Yesterday
High -- | Low -- °F
Precip. -- in
6:28 AM 7:21 PM
Waxing Crescent, 43% visible
Pressure 29.79 in
Visibility 10.0 miles
Clouds Clear
Heat Index 92 °F
Dew Point 68 °F
Humidity 52%
Rainfall 0.00 in
Snow Depth Not available.
UV 10 out of 12
Pollen 9.10 out of 12
Ozone Good
Flu Activity Not available.
METAR KVNY 011951Z 17008KT 10SM CLR 31/12 A2982 RMK AO2 SLP086 T03110122

More Conditions Fewer Conditions

Pressure 29.79 in
Visibility 10.0 miles
Clouds Clear
Heat Index 92 °F
Dew Point 68 °F
Humidity 52%
Rainfall 0.00 in
Snow Depth Not available.
UV 10 out of 12
Pollen 9.10 out of 12
Ozone Good
Flu Activity Not available.
METAR KVNY 011951Z 17008KT 10SM CLR 31/12 A2982 RMK AO2 SLP086 T03110122

More Conditions Fewer Conditions

10-Day Weather Forecast

Almanac

Astronomy

Sep. 01, 2014 Rise Set
Actual Time 6:28 AM PDT 7:21 PM PDT
Civil Twilight 6:02 AM PDT 7:46 PM PDT
Nautical Twilight 5:32 AM PDT 8:17 PM PDT
Astronomical Twilight 5:01 AM PDT 8:48 PM PDT
Moon 1:01 PM PDT 11:43 PM PDT
Length of Visible Light 13h 43m
Length of Day
12h 52m
Tomorrow will be 2m 4s shorter.
Waxing Crescent, 43% of the Moon is Illuminated
Today
Waxing Crescent
Sep 2
First Quarter
Sep 8
Full
Sep 15
Last Quarter
Sep 24
New

Today's Extremes

State Highs State Lows

Community

WunderPhotos

Upload Photos

1,749,387 photos uploaded!

WunderBlogs® & News

Nearby

Air Quality

  Air Quality AQ Index Pollutant
Yesterday Good
OZONE
Current Good
OZONE
Monday Good
OZONE
Monday Good
PM2.5
Tuesday Good
OZONE
Tuesday Good
PM2.5

Snow Depth

Station Depth Elevation
Leavitt Meadows 0 in 7200 ft
Summit Meadow 0 in 9122 ft
Blue Lakes 0 in 8000 ft
Fallen Leaf 0 in 6300 ft
Rubicon #2 0 in 7500 ft

Earthquake Activity

City Distance Mag. Time & Date
Malibu, California 51 miles 2.5 8:11 AM PDT
2014-08-30
Minimum magnitude displayed is 2.5.

Coastal Water Temperatures

Place Temperature
Santa Monica Pier 73.0 °F
Los Angeles, CA 70.0 °F
La Jolla, CA 73.0 °F

Nearby Weather Stations